Repto de Diego, Puerto Rico
Current Conditions -  °F | °C
As of 12:56 AM on Sunday 26 Oct 2014 (Local Time) from TJSJ Reporting Station
Clear Clear  
Wind Chill: 82°   Ceiling: Unl
Heat Index: 89°   Visibility: 10mi
Dew Point: 76°   Wind: 0mph
Humidity: 82%   Direction: NA
Pressure: 29.88"   Gusts: NA
Location:  18.3754°N, 66.0577°W
Report Text: TJSJ 260456Z 00000KT 10SM CLR 28/24 A2988 RMK AO2 SLP117 T02780244
Loading
Personal Weather Stations






























Interactive Weather Map
Tropical Storm Tracking
New forecast layout! Learn more

10-Day Weather Forecast

Advertisements
Track Severe Weather on mobile